Time;durP1;ratioP1;P1;durP2;ratioP2;P2;SDS_P1;SDS_P2;PMS_P1;PMS_P2;Temp;Humidity;BMP_temperature;BMP_pressure;BME280_temperature;BME280_humidity;BME280_pressure;Samples;Min_cycle;Max_cycle;Signal;HPM_P1;HPM_P2
2023/06/02 00:01:49;;;;;;;1.77;1.00;;;23.40;51.60;;;;;;5065585;28;20532;-44
2023/06/02 00:04:23;;;;;;;1.90;0.97;;;23.40;51.60;;;;;;5061787;28;20216;-44
2023/06/02 00:06:55;;;;;;;1.53;1.20;;;23.40;51.60;;;;;;5055945;28;20187;-44
2023/06/02 00:09:26;;;;;;;1.60;1.03;;;23.30;51.60;;;;;;5064242;28;20779;-44
2023/06/02 00:11:57;;;;;;;2.23;1.30;;;23.30;51.70;;;;;;5068281;28;20186;-44
2023/06/02 00:14:30;;;;;;;1.47;1.00;;;23.30;51.70;;;;;;5045696;28;20194;-44
2023/06/02 00:17:00;;;;;;;2.10;1.20;;;23.30;51.60;;;;;;5064834;28;20240;-44
2023/06/02 00:19:31;;;;;;;1.83;1.10;;;23.30;51.50;;;;;;5050918;28;20739;-44
2023/06/02 00:22:06;;;;;;;1.57;1.10;;;23.30;51.30;;;;;;5065181;28;20217;-44
2023/06/02 00:24:48;;;;;;;1.97;1.10;;;23.20;51.50;;;;;;5069961;28;20408;-44
2023/06/02 00:27:17;;;;;;;2.13;1.00;;;23.20;51.60;;;;;;5074851;28;20432;-44
2023/06/02 00:29:48;;;;;;;1.63;1.00;;;23.20;51.60;;;;;;5067590;28;20190;-44
2023/06/02 00:32:16;;;;;;;1.63;1.00;;;23.20;51.60;;;;;;5059308;28;20225;-44
2023/06/02 00:34:50;;;;;;;1.87;1.30;;;23.20;51.60;;;;;;5056932;28;20649;-44
2023/06/02 00:37:21;;;;;;;3.60;1.03;;;23.20;51.50;;;;;;5078327;28;20197;-44
2023/06/02 00:39:51;;;;;;;1.20;1.00;;;23.20;51.60;;;;;;5085604;28;20302;-44
2023/06/02 00:42:28;;;;;;;1.27;1.00;;;23.20;51.60;;;;;;5073929;28;20196;-44
2023/06/02 00:44:58;;;;;;;1.33;1.00;;;23.20;51.50;;;;;;5058274;28;20241;-44
2023/06/02 00:47:27;;;;;;;1.73;1.10;;;23.20;51.60;;;;;;5071276;28;20573;-44
2023/06/02 00:49:59;;;;;;;1.67;1.30;;;23.10;51.60;;;;;;5070584;28;20202;-44
2023/06/02 00:52:47;;;;;;;1.53;1.17;;;23.10;51.40;;;;;;5069961;28;20699;-44
2023/06/02 00:55:32;;;;;;;1.03;0.93;;;23.10;51.60;;;;;;5074264;28;20205;-45
2023/06/02 00:58:13;;;;;;;2.20;1.13;;;23.10;51.60;;;;;;5060546;28;20679;-45
2023/06/02 01:00:52;;;;;;;1.13;1.00;;;23.10;51.50;;;;;;5049889;28;20707;-45
2023/06/02 01:03:32;;;;;;;1.30;1.00;;;23.10;51.60;;;;;;5051671;28;20190;-44
2023/06/02 01:06:07;;;;;;;1.30;1.07;;;23.10;51.50;;;;;;5051102;28;20197;-44
2023/06/02 01:08:40;;;;;;;1.37;0.87;;;23.10;52.20;;;;;;5053607;28;20210;-44
2023/06/02 01:11:10;;;;;;;1.33;1.00;;;23.00;51.60;;;;;;5053952;28;20331;-44
2023/06/02 01:13:41;;;;;;;1.10;1.00;;;23.00;51.50;;;;;;5071008;28;20212;-44
2023/06/02 01:16:16;;;;;;;1.60;1.00;;;23.10;51.60;;;;;;5071105;28;20537;-44
2023/06/02 01:18:51;;;;;;;2.27;1.23;;;23.00;51.60;;;;;;5058737;28;20607;-44
2023/06/02 01:21:30;;;;;;;1.53;0.97;;;23.00;51.50;;;;;;5065048;28;20237;-44
2023/06/02 01:24:00;;;;;;;1.50;1.20;;;23.00;51.30;;;;;;5071562;28;20209;-44
2023/06/02 01:26:34;;;;;;;1.37;0.93;;;23.00;51.40;;;;;;5056173;28;20296;-44
2023/06/02 01:29:07;;;;;;;1.50;1.10;;;23.00;51.50;;;;;;5062867;28;20221;-44
2023/06/02 01:31:46;;;;;;;1.43;1.23;;;23.00;51.60;;;;;;5052770;28;20209;-44
2023/06/02 01:34:37;;;;;;;1.50;0.93;;;23.00;51.70;;;;;;5054662;28;20206;-44
2023/06/02 01:37:08;;;;;;;1.20;1.10;;;22.90;51.60;;;;;;5042485;28;20204;-44
2023/06/02 01:39:52;;;;;;;2.17;1.37;;;22.90;51.70;;;;;;5071794;28;20343;-44
2023/06/02 01:42:24;;;;;;;1.60;1.00;;;22.90;52.20;;;;;;5055067;28;20880;-43
2023/06/02 01:44:56;;;;;;;2.40;1.17;;;22.90;51.50;;;;;;5049054;28;20718;-44
2023/06/02 01:47:26;;;;;;;1.67;1.20;;;22.90;51.70;;;;;;5036253;28;20209;-44
2023/06/02 01:49:58;;;;;;;1.27;1.17;;;22.90;51.60;;;;;;5069811;28;20208;-44
2023/06/02 01:52:29;;;;;;;2.33;1.20;;;22.90;51.40;;;;;;5066119;28;20648;-44
2023/06/02 01:54:57;;;;;;;3.00;1.20;;;22.80;51.60;;;;;;5069473;28;20569;-44
2023/06/02 01:57:29;;;;;;;2.30;1.10;;;22.90;51.60;;;;;;5068307;28;20194;-44
2023/06/02 01:59:57;;;;;;;1.97;1.20;;;22.90;51.70;;;;;;5069599;28;20201;-44
2023/06/02 02:02:28;;;;;;;1.40;1.10;;;22.80;51.70;;;;;;5066872;28;20197;-44
2023/06/02 02:04:58;;;;;;;1.00;0.90;;;22.80;51.60;;;;;;5060974;28;20238;-44
2023/06/02 02:07:28;;;;;;;2.93;1.10;;;22.80;51.70;;;;;;5062538;28;20598;-44
2023/06/02 02:10:02;;;;;;;1.87;1.13;;;22.80;51.80;;;;;;5053410;28;20619;-44
2023/06/02 02:12:33;;;;;;;1.87;1.00;;;22.80;51.80;;;;;;5042464;28;20202;-44
2023/06/02 02:15:04;;;;;;;1.23;1.00;;;22.80;51.70;;;;;;5062384;28;20511;-43
2023/06/02 02:17:36;;;;;;;2.70;1.20;;;22.70;51.70;;;;;;5067832;28;20197;-45
2023/06/02 02:20:11;;;;;;;1.40;1.10;;;22.80;51.90;;;;;;5067936;28;20299;-44
2023/06/02 02:22:40;;;;;;;0.73;0.70;;;22.80;51.90;;;;;;5061102;28;20210;-44
2023/06/02 02:25:12;;;;;;;1.93;0.90;;;22.70;51.80;;;;;;5076908;28;20210;-44
2023/06/02 02:27:43;;;;;;;1.77;1.00;;;22.70;51.90;;;;;;5069190;28;20186;-44
2023/06/02 02:30:12;;;;;;;1.87;1.13;;;22.70;51.80;;;;;;5068492;28;20637;-44
2023/06/02 02:32:47;;;;;;;1.77;1.00;;;22.70;51.80;;;;;;5066900;28;20596;-44
2023/06/02 02:35:15;;;;;;;1.37;1.13;;;22.70;51.80;;;;;;5068479;28;20201;-44
2023/06/02 02:37:48;;;;;;;2.10;1.00;;;22.70;51.70;;;;;;5068390;28;20209;-44
2023/06/02 02:40:31;;;;;;;1.80;1.23;;;22.70;51.70;;;;;;5066117;28;20241;-44
2023/06/02 02:43:00;;;;;;;1.20;1.07;;;22.70;51.80;;;;;;5064792;28;20211;-44
2023/06/02 02:45:30;;;;;;;2.10;1.00;;;22.70;51.60;;;;;;5065364;28;20268;-44
2023/06/02 02:48:02;;;;;;;1.13;1.03;;;22.70;51.70;;;;;;5058003;28;20205;-44
2023/06/02 02:50:33;;;;;;;2.17;1.20;;;22.70;51.70;;;;;;5047515;28;20264;-44
2023/06/02 02:53:05;;;;;;;2.30;1.40;;;22.70;51.70;;;;;;5069158;28;20198;-44
2023/06/02 02:55:37;;;;;;;2.40;1.20;;;22.70;51.70;;;;;;5081854;28;20759;-44
2023/06/02 02:58:08;;;;;;;2.77;1.40;;;22.70;51.70;;;;;;5066629;28;20540;-44
2023/06/02 03:00:37;;;;;;;1.40;1.00;;;22.70;51.80;;;;;;5043223;28;20210;-44
2023/06/02 03:03:10;;;;;;;2.90;1.20;;;22.70;51.80;;;;;;5060243;28;20761;-45
2023/06/02 03:05:41;;;;;;;1.50;1.20;;;22.70;51.70;;;;;;5055121;28;20229;-43
2023/06/02 03:08:15;;;;;;;1.67;1.20;;;22.70;51.80;;;;;;5051195;28;20276;-43
2023/06/02 03:10:47;;;;;;;1.73;1.07;;;22.60;51.70;;;;;;5066790;28;20208;-44
2023/06/02 03:13:19;;;;;;;2.37;1.10;;;22.60;51.70;;;;;;5056720;28;20202;-45
2023/06/02 03:15:50;;;;;;;2.60;1.63;;;22.60;51.60;;;;;;5056942;28;20205;-44
2023/06/02 03:18:20;;;;;;;1.03;0.93;;;22.60;51.60;;;;;;5051244;28;20194;-44
2023/06/02 03:20:51;;;;;;;2.10;1.30;;;22.60;51.50;;;;;;5046280;28;20545;-44
2023/06/02 03:23:22;;;;;;;2.00;1.17;;;22.60;51.60;;;;;;5047510;28;20508;-43
2023/06/02 03:25:52;;;;;;;1.20;0.93;;;22.60;51.60;;;;;;5060000;28;20202;-43
2023/06/02 03:28:21;;;;;;;2.27;1.17;;;22.60;51.60;;;;;;5065856;28;20209;-44
2023/06/02 03:30:52;;;;;;;2.20;1.30;;;22.60;51.70;;;;;;5043703;28;20198;-44
2023/06/02 03:33:23;;;;;;;2.47;1.03;;;22.60;51.60;;;;;;5066244;28;20679;-44
2023/06/02 03:35:52;;;;;;;1.73;1.30;;;22.60;51.60;;;;;;5058222;28;20671;-44
2023/06/02 03:38:23;;;;;;;1.37;1.07;;;22.60;51.60;;;;;;5065418;28;20205;-44
2023/06/02 03:40:52;;;;;;;2.07;1.13;;;22.50;51.60;;;;;;5053841;28;20230;-44
2023/06/02 03:43:23;;;;;;;1.83;1.20;;;22.50;51.60;;;;;;5049135;28;20218;-44
2023/06/02 03:45:51;;;;;;;2.23;0.93;;;22.60;51.60;;;;;;5045586;28;20282;-44
2023/06/02 03:48:23;;;;;;;1.90;1.00;;;22.60;51.70;;;;;;5047971;28;20198;-44
2023/06/02 03:50:53;;;;;;;3.03;1.27;;;22.60;51.60;;;;;;5058319;28;20202;-44
2023/06/02 03:53:23;;;;;;;2.53;1.17;;;22.50;51.60;;;;;;5063901;28;20619;-44
2023/06/02 03:55:51;;;;;;;3.27;1.53;;;22.50;51.60;;;;;;5072058;28;20504;-44
2023/06/02 03:58:23;;;;;;;2.30;1.40;;;22.50;51.60;;;;;;5056820;28;20210;-44
2023/06/02 04:00:54;;;;;;;2.07;1.40;;;22.50;51.50;;;;;;5060183;28;20279;-44
2023/06/02 04:03:25;;;;;;;1.60;1.20;;;22.50;51.60;;;;;;5059953;28;20230;-44
2023/06/02 04:05:56;;;;;;;2.87;1.37;;;22.50;51.60;;;;;;5056157;28;20211;-44
2023/06/02 04:08:27;;;;;;;2.23;1.10;;;22.50;51.60;;;;;;5061550;28;20209;-45
2023/06/02 04:10:58;;;;;;;1.43;1.10;;;22.50;51.60;;;;;;5053596;28;20201;-44
2023/06/02 04:13:27;;;;;;;3.17;1.30;;;22.50;51.70;;;;;;5056644;28;20201;-45
2023/06/02 04:15:57;;;;;;;2.27;1.30;;;22.50;51.60;;;;;;5035237;28;20604;-44
2023/06/02 04:18:28;;;;;;;1.83;1.33;;;22.40;51.40;;;;;;5065826;28;20197;-44
2023/06/02 04:21:00;;;;;;;1.63;1.10;;;22.50;51.50;;;;;;5053149;28;20218;-44
2023/06/02 04:23:31;;;;;;;3.53;1.40;;;22.40;51.40;;;;;;5051557;28;20795;-45
2023/06/02 04:25:58;;;;;;;1.93;1.10;;;22.50;51.50;;;;;;5071027;28;20209;-44
2023/06/02 04:28:32;;;;;;;1.93;1.20;;;22.40;51.50;;;;;;5065847;28;20186;-44
2023/06/02 04:31:09;;;;;;;3.00;1.50;;;22.40;51.50;;;;;;5074387;28;20210;-44
2023/06/02 04:33:46;;;;;;;2.43;1.37;;;22.40;51.40;;;;;;5058032;28;20263;-44
2023/06/02 04:36:15;;;;;;;2.77;1.33;;;22.40;51.40;;;;;;5066255;28;20492;-44
2023/06/02 04:38:46;;;;;;;1.97;1.07;;;22.40;51.50;;;;;;5069203;28;20214;-45
2023/06/02 04:41:19;;;;;;;1.90;1.10;;;22.40;51.50;;;;;;5067952;28;20630;-44
2023/06/02 04:43:51;;;;;;;2.37;1.07;;;22.40;51.50;;;;;;5070327;28;20252;-44
2023/06/02 04:46:26;;;;;;;1.60;1.20;;;22.40;51.50;;;;;;5064404;28;20229;-44
2023/06/02 04:48:56;;;;;;;2.70;1.50;;;22.40;51.50;;;;;;5067150;28;20524;-44
2023/06/02 04:51:29;;;;;;;2.53;1.40;;;22.40;51.40;;;;;;5054969;28;20205;-46
2023/06/02 04:54:03;;;;;;;2.97;1.27;;;22.40;51.40;;;;;;5043951;28;20334;-45
2023/06/02 04:56:37;;;;;;;2.07;1.20;;;22.40;51.50;;;;;;5037177;28;20199;-44
2023/06/02 04:59:09;;;;;;;2.33;1.10;;;22.40;51.40;;;;;;5045743;28;20205;-44
2023/06/02 05:01:40;;;;;;;3.23;1.23;;;22.40;51.30;;;;;;5057058;28;20205;-44
2023/06/02 05:04:11;;;;;;;1.97;1.40;;;22.40;51.30;;;;;;5048017;28;20198;-45
2023/06/02 05:06:48;;;;;;;2.13;1.30;;;22.40;51.20;;;;;;5066288;28;20210;-44
2023/06/02 05:09:17;;;;;;;1.93;1.20;;;22.30;51.10;;;;;;5064458;28;20252;-44
2023/06/02 05:11:49;;;;;;;2.30;1.53;;;22.30;51.10;;;;;;5069353;28;20244;-44
2023/06/02 05:14:19;;;;;;;2.00;1.30;;;22.40;51.20;;;;;;5058173;28;20198;-44
2023/06/02 05:16:51;;;;;;;4.83;1.53;;;22.30;51.20;;;;;;5071043;28;20238;-44
2023/06/02 05:19:24;;;;;;;2.87;1.60;;;22.30;51.20;;;;;;5069126;28;20208;-44
2023/06/02 05:21:56;;;;;;;2.13;1.27;;;22.30;51.20;;;;;;5069025;28;20214;-44
2023/06/02 05:24:31;;;;;;;2.50;1.50;;;22.30;51.20;;;;;;5066767;28;20446;-44
2023/06/02 05:27:03;;;;;;;4.20;1.70;;;22.30;51.30;;;;;;5076860;28;20197;-43
2023/06/02 05:29:34;;;;;;;2.30;1.47;;;22.30;51.30;;;;;;5068387;28;20201;-44
2023/06/02 05:32:06;;;;;;;5.93;1.50;;;22.30;51.30;;;;;;5059511;28;20201;-44
2023/06/02 05:34:39;;;;;;;3.67;1.73;;;22.30;51.30;;;;;;5060562;28;20664;-44
2023/06/02 05:37:10;;;;;;;3.37;1.60;;;22.30;51.40;;;;;;5067095;28;20212;-44
2023/06/02 05:39:41;;;;;;;3.67;1.50;;;22.30;51.40;;;;;;5071193;28;20218;-44
2023/06/02 05:42:14;;;;;;;1.77;1.20;;;22.30;51.40;;;;;;5052372;28;20278;-44
2023/06/02 05:44:57;;;;;;;3.83;1.70;;;22.30;51.40;;;;;;5057743;28;20297;-45
2023/06/02 05:47:30;;;;;;;3.10;1.37;;;22.30;51.40;;;;;;5068983;28;20193;-44
2023/06/02 05:50:01;;;;;;;2.30;1.53;;;22.30;51.50;;;;;;5080094;28;20205;-44
2023/06/02 05:52:28;;;;;;;4.13;1.57;;;22.30;51.40;;;;;;5049020;28;20516;-45
2023/06/02 05:54:58;;;;;;;4.53;1.47;;;22.30;51.30;;;;;;5067873;28;20198;-45
2023/06/02 05:57:28;;;;;;;1.93;1.50;;;22.30;51.40;;;;;;5066261;28;20217;-45
2023/06/02 05:59:58;;;;;;;4.77;1.60;;;22.30;51.40;;;;;;5069079;28;20227;-45
2023/06/02 06:02:28;;;;;;;2.80;1.40;;;22.30;51.30;;;;;;5064975;28;20505;-44
2023/06/02 06:04:59;;;;;;;2.90;1.50;;;22.30;51.40;;;;;;5068549;28;20225;-44
2023/06/02 06:07:28;;;;;;;3.40;1.70;;;22.30;51.40;;;;;;5064752;28;20224;-44
2023/06/02 06:10:10;;;;;;;4.73;2.00;;;22.20;51.30;;;;;;5065425;28;20829;-44
2023/06/02 06:12:43;;;;;;;3.27;1.70;;;22.30;51.30;;;;;;5057839;28;20191;-44
2023/06/02 06:15:16;;;;;;;3.27;1.70;;;22.20;51.30;;;;;;5064546;28;20213;-44
2023/06/02 06:17:52;;;;;;;3.40;1.57;;;22.20;51.30;;;;;;5067476;28;20221;-44
2023/06/02 06:20:36;;;;;;;2.63;1.63;;;22.20;51.20;;;;;;5047449;28;20737;-44
2023/06/02 06:23:06;;;;;;;3.20;1.77;;;22.20;51.20;;;;;;5055891;28;20733;-44
2023/06/02 06:25:36;;;;;;;4.17;1.57;;;22.20;51.20;;;;;;5066822;28;20210;-44
2023/06/02 06:28:06;;;;;;;4.17;1.90;;;22.20;51.20;;;;;;5037797;28;20312;-44
2023/06/02 06:30:39;;;;;;;3.27;1.83;;;22.20;51.00;;;;;;5056987;28;21081;-44
2023/06/02 06:33:08;;;;;;;2.73;1.47;;;22.20;51.00;;;;;;5059164;28;20579;-44
2023/06/02 06:35:38;;;;;;;3.03;1.60;;;22.20;51.10;;;;;;5027593;28;20222;-44
2023/06/02 06:38:09;;;;;;;4.17;1.80;;;22.20;51.10;;;;;;5054799;28;20206;-44
2023/06/02 06:40:40;;;;;;;4.23;1.90;;;22.20;51.00;;;;;;5045577;28;20242;-44
2023/06/02 06:43:11;;;;;;;2.33;1.50;;;22.20;51.00;;;;;;5031238;28;20217;-43
2023/06/02 06:46:08;;;;;;;3.43;1.40;;;22.20;51.00;;;;;;5007692;28;20243;-44
2023/06/02 06:48:37;;;;;;;3.53;1.90;;;22.20;51.00;;;;;;5003996;28;20664;-44
2023/06/02 06:51:07;;;;;;;2.90;1.63;;;22.20;51.10;;;;;;5006751;28;20200;-44
2023/06/02 06:53:41;;;;;;;2.33;1.23;;;22.20;51.10;;;;;;5007375;28;20302;-44
2023/06/02 06:56:12;;;;;;;2.47;1.50;;;22.20;51.00;;;;;;4989838;28;20591;-44
2023/06/02 06:58:43;;;;;;;3.57;1.80;;;22.20;51.00;;;;;;5002883;28;21042;-44
2023/06/02 07:01:15;;;;;;;4.00;1.80;;;22.20;51.10;;;;;;4986913;28;20261;-44
2023/06/02 07:03:46;;;;;;;3.53;1.73;;;22.20;51.00;;;;;;5013225;28;20221;-44
2023/06/02 07:06:20;;;;;;;2.70;1.60;;;22.20;50.90;;;;;;5039700;28;20212;-44
2023/06/02 07:08:51;;;;;;;4.13;1.93;;;22.20;50.90;;;;;;5046622;28;20210;-44
2023/06/02 07:11:26;;;;;;;4.10;2.00;;;22.20;51.00;;;;;;5065544;28;20520;-44
2023/06/02 07:14:04;;;;;;;2.83;1.70;;;22.20;50.70;;;;;;5047552;28;20201;-44
2023/06/02 07:16:46;;;;;;;4.73;1.97;;;22.10;50.80;;;;;;5033595;28;20201;-44
2023/06/02 07:19:15;;;;;;;5.03;1.97;;;22.10;50.60;;;;;;5057488;28;20197;-44
2023/06/02 07:21:45;;;;;;;3.60;1.73;;;22.20;50.80;;;;;;5048387;28;20284;-44
2023/06/02 07:24:13;;;;;;;4.07;1.80;;;22.10;50.60;;;;;;5048742;28;20651;-44
2023/06/02 07:26:43;;;;;;;3.27;1.80;;;22.10;50.60;;;;;;5045423;28;20272;-44
2023/06/02 07:29:13;;;;;;;2.77;1.60;;;22.10;50.50;;;;;;5049564;28;20597;-44
2023/06/02 07:31:44;;;;;;;4.70;1.80;;;22.10;50.60;;;;;;5062795;28;20206;-45
2023/06/02 07:34:14;;;;;;;2.53;1.50;;;22.20;50.60;;;;;;5045386;28;20207;-45
2023/06/02 07:36:47;;;;;;;5.00;1.67;;;22.10;50.60;;;;;;5033915;28;20194;-44
2023/06/02 07:39:20;;;;;;;4.43;1.97;;;22.10;50.60;;;;;;5045729;28;20204;-44
2023/06/02 07:41:48;;;;;;;3.00;1.60;;;22.10;50.50;;;;;;5045530;28;20417;-44
2023/06/02 07:44:19;;;;;;;2.73;1.87;;;22.20;50.40;;;;;;5050499;28;20204;-44
2023/06/02 07:46:46;;;;;;;4.00;1.97;;;22.20;50.50;;;;;;5042504;28;20222;-44
2023/06/02 07:49:17;;;;;;;2.83;1.77;;;22.20;50.40;;;;;;5061252;28;20182;-44
2023/06/02 07:51:47;;;;;;;5.23;1.80;;;22.10;50.30;;;;;;5058868;28;20197;-44
2023/06/02 07:54:18;;;;;;;5.23;2.00;;;22.20;50.40;;;;;;5051565;28;20210;-44
2023/06/02 07:56:50;;;;;;;3.43;1.53;;;22.20;50.30;;;;;;5057633;28;20221;-44
2023/06/02 07:59:23;;;;;;;3.70;1.87;;;22.20;50.30;;;;;;5045445;28;20209;-44
2023/06/02 08:01:55;;;;;;;4.60;1.93;;;22.20;50.20;;;;;;5058993;28;20217;-44
2023/06/02 08:04:25;;;;;;;4.97;1.80;;;22.10;50.10;;;;;;5049725;28;20641;-44
2023/06/02 08:07:08;;;;;;;3.20;1.50;;;22.10;50.10;;;;;;5054126;28;20309;-43
2023/06/02 08:09:37;;;;;;;5.10;2.00;;;22.20;50.20;;;;;;5048295;28;20219;-44
2023/06/02 08:12:07;;;;;;;6.00;1.83;;;22.10;50.00;;;;;;5057076;28;20710;-44
2023/06/02 08:14:39;;;;;;;4.27;1.70;;;22.20;50.10;;;;;;5060995;28;20194;-44
2023/06/02 08:17:11;;;;;;;3.50;1.63;;;22.20;50.10;;;;;;5063006;28;20202;-45
2023/06/02 08:19:41;;;;;;;3.80;1.90;;;22.20;50.20;;;;;;5060461;28;20193;-45
2023/06/02 08:22:12;;;;;;;3.87;1.77;;;22.20;50.10;;;;;;5065294;28;20290;-44
2023/06/02 08:24:46;;;;;;;3.93;1.77;;;22.20;50.00;;;;;;5041860;28;20241;-44
2023/06/02 08:27:20;;;;;;;4.67;1.80;;;22.20;49.80;;;;;;5061909;28;20210;-44
2023/06/02 08:29:53;;;;;;;3.47;1.70;;;22.20;50.00;;;;;;5058943;28;20199;-44
2023/06/02 08:32:26;;;;;;;3.13;1.60;;;22.20;50.00;;;;;;5062367;28;20193;-44
2023/06/02 08:35:01;;;;;;;3.47;1.73;;;22.20;50.00;;;;;;5052279;28;20190;-44
2023/06/02 08:37:34;;;;;;;3.37;1.80;;;22.20;49.90;;;;;;5053905;28;20233;-44
2023/06/02 08:40:07;;;;;;;6.03;2.00;;;22.20;49.80;;;;;;5051145;28;20246;-44
2023/06/02 08:42:38;;;;;;;4.53;1.77;;;22.20;49.80;;;;;;5048949;28;20197;-44
2023/06/02 08:45:10;;;;;;;4.23;2.00;;;22.20;49.90;;;;;;5049525;28;20252;-44
2023/06/02 08:47:42;;;;;;;4.10;1.60;;;22.20;49.80;;;;;;5054549;28;20261;-43
2023/06/02 08:50:12;;;;;;;2.40;1.60;;;22.20;49.80;;;;;;5067345;28;20201;-44
2023/06/02 08:52:46;;;;;;;3.13;1.60;;;22.20;49.80;;;;;;5064770;28;20198;-45
2023/06/02 08:55:16;;;;;;;3.80;1.70;;;22.20;49.80;;;;;;5059152;28;20572;-44
2023/06/02 08:57:49;;;;;;;2.90;1.60;;;22.20;50.00;;;;;;5031281;28;20237;-44
2023/06/02 09:00:20;;;;;;;3.87;1.80;;;22.20;49.90;;;;;;5063104;28;20201;-44
2023/06/02 09:02:54;;;;;;;2.97;1.80;;;22.20;49.70;;;;;;5058457;28;20206;-44
2023/06/02 09:05:28;;;;;;;5.13;1.70;;;22.20;49.90;;;;;;5041996;28;20273;-44
2023/06/02 09:08:15;;;;;;;4.13;2.07;;;22.20;49.80;;;;;;5037626;28;20198;-44
2023/06/02 09:10:48;;;;;;;4.47;1.90;;;22.20;49.80;;;;;;5039676;28;20213;-44
2023/06/02 09:13:40;;;;;;;3.00;1.43;;;22.20;49.80;;;;;;5069541;28;20244;-44
2023/06/02 09:16:11;;;;;;;3.27;1.60;;;22.30;49.60;;;;;;5062259;28;20194;-44
2023/06/02 09:19:02;;;;;;;3.40;1.57;;;22.30;49.80;;;;;;5064719;28;20217;-44
2023/06/02 09:21:33;;;;;;;2.83;1.70;;;22.30;49.80;;;;;;5068050;28;20209;-44
2023/06/02 09:24:07;;;;;;;3.60;1.77;;;22.20;49.80;;;;;;5068190;28;20210;-44
2023/06/02 09:26:51;;;;;;;4.43;1.90;;;22.20;49.50;;;;;;5068801;28;20237;-44
2023/06/02 09:29:22;;;;;;;4.87;1.87;;;22.20;49.30;;;;;;5070071;28;20209;-44
2023/06/02 09:31:59;;;;;;;3.43;1.97;;;22.30;49.70;;;;;;5058237;28;20219;-44
2023/06/02 09:34:35;;;;;;;5.70;2.10;;;22.30;49.70;;;;;;5064042;28;20189;-43
2023/06/02 09:37:09;;;;;;;4.83;1.77;;;22.30;49.60;;;;;;5029455;28;21014;-44
2023/06/02 09:39:46;;;;;;;2.93;1.63;;;22.30;49.40;;;;;;5060162;28;20233;-45
2023/06/02 09:42:17;;;;;;;3.57;1.50;;;22.30;49.50;;;;;;5041957;28;20190;-44
2023/06/02 09:45:07;;;;;;;5.63;1.90;;;22.30;49.10;;;;;;5023543;28;20215;-44
2023/06/02 09:47:40;;;;;;;3.80;1.93;;;22.30;49.40;;;;;;5017000;28;20219;-44
2023/06/02 09:50:41;;;;;;;4.10;1.73;;;22.30;49.60;;;;;;5025620;28;20230;-44
2023/06/02 09:53:15;;;;;;;4.23;2.30;;;22.30;49.40;;;;;;5031225;28;20194;-44
2023/06/02 09:55:50;;;;;;;5.40;1.67;;;22.30;49.40;;;;;;5022573;28;20206;-44
2023/06/02 09:58:19;;;;;;;4.67;1.60;;;22.30;49.40;;;;;;5025231;28;20291;-44
2023/06/02 10:00:50;;;;;;;3.77;1.60;;;22.30;49.30;;;;;;5030008;28;20663;-44
2023/06/02 10:03:22;;;;;;;4.67;1.70;;;22.30;49.20;;;;;;5027011;28;20315;-44
2023/06/02 10:06:37;;;;;;;3.00;1.60;;;22.30;49.40;;;;;;5043381;28;20195;-44
2023/06/02 10:09:34;;;;;;;3.33;1.70;;;22.40;49.40;;;;;;4992495;28;20226;-44
2023/06/02 10:12:32;;;;;;;3.43;1.57;;;22.40;49.20;;;;;;4987370;28;20207;-44
2023/06/02 10:15:39;;;;;;;3.03;1.40;;;22.40;49.40;;;;;;5049988;28;20194;-44
2023/06/02 10:18:43;;;;;;;5.27;2.00;;;22.40;49.40;;;;;;5069332;28;20209;-44
2023/06/02 10:21:42;;;;;;;5.30;1.93;;;22.40;49.50;;;;;;5052372;28;20244;-44
2023/06/02 10:24:40;;;;;;;3.63;1.80;;;22.40;49.60;;;;;;5025513;28;20202;-44
2023/06/02 10:27:35;;;;;;;3.67;1.67;;;22.40;49.40;;;;;;5029998;28;20554;-45
2023/06/02 10:30:06;;;;;;;2.63;1.70;;;22.50;49.30;;;;;;5014233;28;20205;-43
2023/06/02 10:33:04;;;;;;;3.73;1.90;;;22.50;49.00;;;;;;5021626;28;21015;-44
2023/06/02 10:36:01;;;;;;;3.23;1.60;;;22.50;49.20;;;;;;5049050;28;20663;-44
2023/06/02 10:38:31;;;;;;;3.53;1.60;;;22.50;49.00;;;;;;5041784;28;20202;-45
2023/06/02 10:41:07;;;;;;;3.20;1.77;;;22.50;49.10;;;;;;5056398;28;20243;-44
2023/06/02 10:43:39;;;;;;;3.37;1.53;;;22.50;48.80;;;;;;5067046;28;20591;-44
2023/06/02 10:46:27;;;;;;;3.87;1.70;;;22.50;48.80;;;;;;5051289;28;20751;-44
2023/06/02 10:48:59;;;;;;;4.47;1.77;;;22.50;48.70;;;;;;5075134;28;20201;-44
2023/06/02 10:52:06;;;;;;;4.10;1.80;;;22.60;49.00;;;;;;5050943;28;20186;-45
2023/06/02 10:54:34;;;;;;;4.23;1.60;;;22.60;49.10;;;;;;5052575;28;20682;-45
2023/06/02 10:57:04;;;;;;;3.83;1.60;;;22.60;49.40;;;;;;5061891;28;20218;-46
2023/06/02 10:59:40;;;;;;;3.10;1.70;;;22.60;49.10;;;;;;5052146;28;20190;-45
2023/06/02 11:02:10;;;;;;;4.80;1.60;;;22.60;48.90;;;;;;5067900;28;20250;-45
2023/06/02 11:04:44;;;;;;;5.97;1.90;;;22.60;49.10;;;;;;5075126;28;20279;-44
2023/06/02 11:07:28;;;;;;;4.07;1.77;;;22.60;49.20;;;;;;5062833;28;20218;-45
2023/06/02 11:10:47;;;;;;;4.83;1.77;;;22.60;49.80;;;;;;5051983;28;20704;-45
2023/06/02 11:13:20;;;;;;;4.87;2.00;;;22.60;49.30;;;;;;5051067;28;20228;-45
2023/06/02 11:16:02;;;;;;;2.07;1.30;;;22.60;49.30;;;;;;5064902;28;20196;-44
2023/06/02 11:18:34;;;;;;;3.83;1.90;;;22.60;49.20;;;;;;5068837;28;20218;-45
2023/06/02 11:21:23;;;;;;;4.43;1.77;;;22.60;49.20;;;;;;5059451;28;20209;-44
2023/06/02 11:23:59;;;;;;;3.33;1.77;;;22.70;49.30;;;;;;5046264;28;20194;-44
2023/06/02 11:26:48;;;;;;;2.73;1.70;;;22.70;49.50;;;;;;5061517;28;20291;-44
2023/06/02 11:29:18;;;;;;;3.53;2.00;;;22.70;49.40;;;;;;5062561;28;20756;-44
2023/06/02 11:31:52;;;;;;;2.83;1.90;;;22.70;49.40;;;;;;5068645;28;20205;-44
2023/06/02 11:34:35;;;;;;;3.10;1.90;;;22.70;49.30;;;;;;5059275;28;20234;-43
2023/06/02 11:37:20;;;;;;;5.47;1.80;;;22.70;49.30;;;;;;5068962;28;20201;-44
2023/06/02 11:39:55;;;;;;;3.80;2.00;;;22.70;49.30;;;;;;5068062;28;20825;-45
2023/06/02 11:42:46;;;;;;;3.70;1.70;;;22.70;49.50;;;;;;5066060;28;20197;-45
2023/06/02 11:45:28;;;;;;;1.73;1.50;;;22.80;49.50;;;;;;5061370;28;20596;-44
2023/06/02 11:48:12;;;;;;;3.93;1.90;;;22.80;49.60;;;;;;5037774;28;20265;-44
2023/06/02 11:50:52;;;;;;;3.67;1.80;;;22.80;49.70;;;;;;5049583;28;20204;-44
2023/06/02 11:53:26;;;;;;;3.60;1.80;;;22.80;49.50;;;;;;5056023;28;20212;-44
2023/06/02 11:55:58;;;;;;;4.07;1.80;;;22.80;49.30;;;;;;5055370;28;20204;-44
2023/06/02 11:58:33;;;;;;;3.23;1.80;;;22.80;49.50;;;;;;5057826;28;20686;-44
2023/06/02 12:01:14;;;;;;;3.93;1.67;;;22.80;49.50;;;;;;5068318;28;20201;-44
2023/06/02 12:04:05;;;;;;;4.57;1.97;;;22.80;50.10;;;;;;5053705;28;20191;-44
2023/06/02 12:06:47;;;;;;;2.03;1.50;;;22.90;49.40;;;;;;5032954;28;20214;-44
2023/06/02 12:09:18;;;;;;;3.23;1.80;;;22.90;49.40;;;;;;5030308;28;20209;-44
2023/06/02 12:11:55;;;;;;;4.93;1.83;;;22.90;49.30;;;;;;5067141;28;20220;-44
2023/06/02 12:14:38;;;;;;;3.17;1.60;;;22.90;49.30;;;;;;5069801;28;20190;-45
2023/06/02 12:17:09;;;;;;;3.13;1.70;;;22.90;49.50;;;;;;5064417;28;20626;-44
2023/06/02 12:19:42;;;;;;;3.63;1.70;;;22.90;49.40;;;;;;5072160;28;20205;-44
2023/06/02 12:22:14;;;;;;;3.23;1.63;;;22.90;49.60;;;;;;5069912;28;20659;-45
2023/06/02 12:24:45;;;;;;;3.40;1.87;;;22.90;49.70;;;;;;5069981;28;20536;-45
2023/06/02 12:27:22;;;;;;;3.30;1.70;;;23.00;49.80;;;;;;5072027;28;20789;-44
2023/06/02 12:29:54;;;;;;;3.60;1.57;;;23.00;50.00;;;;;;5038693;28;20196;-44
2023/06/02 12:32:26;;;;;;;3.37;1.90;;;23.00;50.00;;;;;;5055794;28;20190;-44
2023/06/02 12:34:58;;;;;;;3.10;1.90;;;23.00;50.10;;;;;;5049975;28;20201;-45
2023/06/02 12:37:29;;;;;;;5.20;2.23;;;23.00;50.00;;;;;;5071729;28;20193;-44
2023/06/02 12:39:59;;;;;;;2.97;1.57;;;23.00;49.90;;;;;;5062964;28;20241;-44
2023/06/02 12:42:26;;;;;;;4.23;2.30;;;23.10;50.00;;;;;;5049568;28;20728;-45
2023/06/02 12:44:55;;;;;;;3.40;1.60;;;23.10;49.90;;;;;;5062661;28;20210;-46
2023/06/02 12:47:28;;;;;;;2.87;1.80;;;23.10;49.90;;;;;;5069828;28;20225;-44
2023/06/02 12:50:03;;;;;;;2.53;1.67;;;23.10;49.90;;;;;;5052381;28;20256;-44
2023/06/02 12:52:36;;;;;;;2.87;2.10;;;23.10;50.00;;;;;;5065039;28;20190;-45
2023/06/02 12:55:08;;;;;;;2.57;1.87;;;23.10;50.10;;;;;;5070981;28;20202;-45
2023/06/02 12:57:40;;;;;;;4.67;1.83;;;23.10;50.10;;;;;;5049594;28;20210;-43
2023/06/02 13:00:13;;;;;;;6.10;2.00;;;23.10;50.20;;;;;;5029730;28;20206;-43
2023/06/02 13:02:46;;;;;;;4.73;1.80;;;23.20;50.20;;;;;;5041520;28;20182;-44
2023/06/02 13:05:19;;;;;;;3.10;1.97;;;23.20;50.20;;;;;;5070989;28;20224;-44
2023/06/02 13:07:47;;;;;;;3.43;1.70;;;23.20;50.10;;;;;;5061199;28;20644;-44
2023/06/02 13:10:18;;;;;;;4.50;1.90;;;23.20;50.10;;;;;;5032245;28;20540;-44
2023/06/02 13:12:50;;;;;;;2.73;2.13;;;23.20;50.10;;;;;;5053567;28;20194;-44
2023/06/02 13:15:21;;;;;;;4.43;1.87;;;23.20;50.00;;;;;;5068068;28;20647;-44
2023/06/02 13:17:49;;;;;;;2.93;1.63;;;23.20;50.00;;;;;;5057418;28;20631;-44
2023/06/02 13:20:25;;;;;;;5.27;1.77;;;23.20;50.00;;;;;;5052101;28;20207;-43
2023/06/02 13:22:57;;;;;;;2.47;1.50;;;23.30;50.20;;;;;;5053167;28;20194;-44
2023/06/02 13:25:28;;;;;;;4.23;1.90;;;23.30;50.30;;;;;;5058663;28;20739;-44